Time;durP1;ratioP1;P1;durP2;ratioP2;P2;SDS_P1;SDS_P2;PMS_P1;PMS_P2;Temp;Humidity;BMP_temperature;BMP_pressure;BME280_temperature;BME280_humidity;BME280_pressure;Samples;Min_cycle;Max_cycle;Signal;HPM_P1;HPM_P2
2022/06/21 00:00:30;;;;;;;9.75;3.67;;;;;;;12.46;71.31;101614.13;5035025;28;20060;-77
2022/06/21 00:03:12;;;;;;;7.13;3.33;;;;;;;12.44;71.42;101618.59;5040979;28;20077;-76
2022/06/21 00:05:44;;;;;;;8.93;3.78;;;;;;;12.42;71.67;101623.94;5031318;28;20041;-78
2022/06/21 00:08:19;;;;;;;8.85;3.50;;;;;;;12.37;71.66;101617.00;5031706;28;20068;-77
2022/06/21 00:10:46;;;;;;;8.18;3.65;;;;;;;12.40;72.20;101609.00;5032210;28;20038;-78
2022/06/21 00:13:21;;;;;;;8.23;3.80;;;;;;;12.40;71.95;101616.94;5046242;28;20045;-77
2022/06/21 00:15:54;;;;;;;7.75;3.72;;;;;;;12.36;71.75;101607.34;5040973;28;20504;-77
2022/06/21 00:18:25;;;;;;;10.40;3.92;;;;;;;12.33;72.16;101604.78;5038553;28;20072;-77
2022/06/21 00:20:53;;;;;;;8.60;3.90;;;;;;;12.31;72.53;101611.91;5047634;28;20132;-76
2022/06/21 00:23:32;;;;;;;8.05;3.85;;;;;;;12.29;72.63;101603.13;5033236;28;20042;-79
2022/06/21 00:25:59;;;;;;;10.75;4.10;;;;;;;12.27;72.71;101600.50;5032430;28;20081;-77
2022/06/21 00:28:27;;;;;;;8.25;3.95;;;;;;;12.21;72.41;101611.25;5034808;28;20037;-78
2022/06/21 00:30:55;;;;;;;6.78;3.55;;;;;;;12.12;71.83;101601.75;5034143;28;20566;-77
2022/06/21 00:33:25;;;;;;;11.50;4.07;;;;;;;12.07;71.83;101608.94;5032435;28;20041;-77
2022/06/21 00:36:02;;;;;;;7.85;3.70;;;;;;;11.96;71.40;101607.41;5040557;28;20068;-77
2022/06/21 00:38:34;;;;;;;7.80;4.38;;;;;;;11.90;71.65;101611.94;5035343;28;20545;-77
2022/06/21 00:41:07;;;;;;;5.93;3.80;;;;;;;11.82;71.71;101609.47;5032266;28;20092;-76
2022/06/21 00:43:44;;;;;;;10.45;4.43;;;;;;;11.74;72.19;101606.16;5045950;28;20045;-76
2022/06/21 00:46:40;;;;;;;8.65;4.07;;;;;;;11.68;73.09;101608.94;5042017;28;20104;-76
2022/06/21 00:49:22;;;;;;;10.85;4.10;;;;;;;11.62;73.75;101599.38;5043991;28;20045;-77
2022/06/21 00:51:59;;;;;;;9.52;4.03;;;;;;;11.59;74.30;101597.69;5046824;28;20092;-77
2022/06/21 00:55:17;;;;;;;7.78;4.40;;;;;;;11.53;74.10;101595.16;5034225;28;20038;-77
2022/06/21 00:57:53;;;;;;;7.68;3.97;;;;;;;11.46;74.38;101594.44;5034380;28;20069;-76
2022/06/21 01:00:51;;;;;;;8.77;4.53;;;;;;;11.45;74.80;101607.69;5039015;28;20472;-74
2022/06/21 01:03:26;;;;;;;10.90;4.40;;;;;;;11.41;75.46;101600.72;5038385;28;20037;-74
2022/06/21 01:05:57;;;;;;;10.45;4.60;;;;;;;11.36;75.66;101594.69;5041748;28;20475;-74
2022/06/21 01:08:32;;;;;;;7.78;4.00;;;;;;;11.34;75.70;101592.94;5048085;28;20053;-73
2022/06/21 01:11:08;;;;;;;10.98;4.50;;;;;;;11.29;75.28;101597.44;5048668;28;20046;-75
2022/06/21 01:13:46;;;;;;;8.25;4.72;;;;;;;11.26;74.97;101589.59;5035897;28;20084;-73
2022/06/21 01:16:14;;;;;;;5.95;3.80;;;;;;;11.22;74.38;101589.69;5040084;28;20104;-74
2022/06/21 01:18:43;;;;;;;8.80;4.40;;;;;;;11.16;74.06;101594.19;5048467;28;20048;-72
2022/06/21 01:21:17;;;;;;;11.70;4.50;;;;;;;11.13;74.47;101590.75;5031387;28;20558;-75
2022/06/21 01:24:16;;;;;;;9.55;4.40;;;;;;;11.11;75.30;101588.16;5033940;28;20042;-74
2022/06/21 01:27:01;;;;;;;9.13;4.30;;;;;;;11.10;75.57;101580.25;5038389;28;20076;-75
2022/06/21 01:29:33;;;;;;;8.43;3.97;;;;;;;11.07;75.81;101580.34;5031056;28;20042;-78
2022/06/21 01:32:05;;;;;;;12.13;4.43;;;;;;;11.02;75.80;101573.38;5030692;28;20096;-77
2022/06/21 01:34:35;;;;;;;8.48;4.28;;;;;;;10.98;75.38;101569.06;5032430;28;20120;-76
2022/06/21 01:37:18;;;;;;;8.45;4.88;;;;;;;10.95;75.41;101573.50;5037683;28;20797;-75
2022/06/21 01:40:10;;;;;;;9.05;4.47;;;;;;;10.91;75.19;101579.78;5040181;28;20044;-78
2022/06/21 01:42:49;;;;;;;6.72;4.13;;;;;;;10.84;74.96;101579.00;5043087;28;20042;-77
2022/06/21 01:45:34;;;;;;;7.80;3.95;;;;;;;10.79;74.70;101576.47;5037147;28;20581;-76
2022/06/21 01:48:12;;;;;;;;;;;;;;;10.76;74.59;101578.31;5052258;28;20057;-77
2022/06/21 01:50:45;;;;;;;6.43;4.40;;;;;;;10.72;74.54;101583.63;5041313;28;19925;-76
2022/06/21 01:53:23;;;;;;;9.02;4.22;;;;;;;10.72;74.42;101593.31;5036018;28;20050;-75
2022/06/21 01:56:06;;;;;;;8.50;4.32;;;;;;;10.68;74.99;101584.56;5045479;28;20089;-77
2022/06/21 01:58:41;;;;;;;8.55;4.30;;;;;;;10.65;75.32;101582.00;5033557;28;20822;-75
2022/06/21 02:01:22;;;;;;;8.38;4.25;;;;;;;10.64;75.80;101576.75;5033899;28;20045;-74
2022/06/21 02:03:55;;;;;;;8.52;4.40;;;;;;;10.61;75.84;101576.81;5046396;28;20041;-74
2022/06/21 02:06:31;;;;;;;15.85;4.43;;;;;;;10.58;75.33;101583.03;5033920;28;20053;-75
2022/06/21 02:09:06;;;;;;;10.07;4.50;;;;;;;10.53;75.26;101587.50;5038053;28;20041;-75
2022/06/21 02:11:47;;;;;;;10.43;4.22;;;;;;;10.48;74.98;101582.31;5036813;28;20046;-73
2022/06/21 02:14:28;;;;;;;9.13;4.28;;;;;;;10.46;74.93;101586.75;5038854;28;20068;-75
2022/06/21 02:17:14;;;;;;;7.78;4.13;;;;;;;10.42;74.83;101577.16;5047046;28;20522;-76
2022/06/21 02:20:01;;;;;;;8.25;4.18;;;;;;;10.38;74.98;101578.97;5034283;28;20042;-76
2022/06/21 02:22:32;;;;;;;8.13;4.20;;;;;;;10.36;74.88;101580.75;5034224;28;20046;-76
2022/06/21 02:25:01;;;;;;;7.25;4.20;;;;;;;10.33;75.25;101572.88;5035350;28;20094;-73
2022/06/21 02:27:33;;;;;;;7.28;3.78;;;;;;;10.31;75.23;101579.94;5035329;28;20041;-75
2022/06/21 02:30:07;;;;;;;10.30;3.85;;;;;;;10.26;75.56;101569.47;5047371;28;20045;-76
2022/06/21 02:32:37;;;;;;;;;;;;;;;10.20;75.91;101581.88;5049124;28;20046;-75
2022/06/21 02:35:30;;;;;;;9.05;4.40;;;;;;;10.14;75.96;101577.59;5034470;28;20344;-74
2022/06/21 02:38:01;;;;;;;6.97;4.05;;;;;;;10.12;76.61;101578.53;5040092;28;20065;-71
2022/06/21 02:40:42;;;;;;;7.57;4.18;;;;;;;10.07;76.65;101578.59;5047935;28;20045;-72
2022/06/21 02:43:19;;;;;;;7.53;4.13;;;;;;;10.02;76.39;101569.91;5037482;28;20038;-73
2022/06/21 02:46:16;;;;;;;9.18;3.78;;;;;;;10.00;76.60;101569.06;5039058;28;20038;-73
2022/06/21 02:48:58;;;;;;;6.22;3.60;;;;;;;9.95;76.26;101556.81;5042681;28;20046;-73
2022/06/21 02:51:53;;;;;;;7.47;3.80;;;;;;;9.92;76.46;101550.75;5044233;28;20114;-72
2022/06/21 02:54:26;;;;;;;6.93;3.60;;;;;;;9.98;77.39;101539.25;5036244;28;20123;-73
2022/06/21 02:57:08;;;;;;;8.25;4.00;;;;;;;10.03;77.60;101543.53;5032865;28;20092;-73
2022/06/21 02:59:39;;;;;;;6.75;3.72;;;;;;;10.11;77.65;101535.50;5043309;28;20124;-73
2022/06/21 03:02:13;;;;;;;8.60;3.80;;;;;;;10.21;77.10;101529.19;5036942;28;20037;-72
2022/06/21 03:04:50;;;;;;;7.13;4.03;;;;;;;10.22;77.21;101535.31;5034020;28;20041;-74
2022/06/21 03:07:26;;;;;;;7.90;4.00;;;;;;;10.15;77.26;101529.28;5036004;28;20038;-72
2022/06/21 03:09:54;;;;;;;6.10;3.70;;;;;;;10.12;77.61;101521.44;5035465;28;20077;-72
2022/06/21 03:12:28;;;;;;;10.27;4.18;;;;;;;10.12;77.73;101515.28;5046882;28;20107;-73
2022/06/21 03:15:04;;;;;;;13.07;4.03;;;;;;;10.07;77.66;101521.50;5046044;28;20041;-73
2022/06/21 03:17:52;;;;;;;7.22;4.20;;;;;;;10.09;77.77;101521.50;5041174;28;20108;-74
2022/06/21 03:20:21;;;;;;;8.10;4.15;;;;;;;10.12;77.83;101528.47;5032498;28;20499;-73
2022/06/21 03:22:52;;;;;;;6.95;4.00;;;;;;;10.13;77.95;101523.16;5033682;28;20046;-77
2022/06/21 03:25:53;;;;;;;10.95;4.00;;;;;;;10.20;77.86;101527.44;5032819;28;20123;-77
2022/06/21 03:28:26;;;;;;;8.80;3.83;;;;;;;10.24;77.54;101523.84;5043599;28;20464;-77
2022/06/21 03:31:21;;;;;;;8.38;3.80;;;;;;;10.18;77.76;101523.97;5035710;28;20448;-76
2022/06/21 03:33:56;;;;;;;11.40;4.32;;;;;;;10.16;77.94;101530.16;5032741;28;20046;-75
2022/06/21 03:36:26;;;;;;;6.47;4.45;;;;;;;10.14;77.47;101534.56;5035414;28;20045;-76
2022/06/21 03:39:09;;;;;;;6.20;3.97;;;;;;;10.14;76.71;101532.78;5052587;28;20040;-75
2022/06/21 03:41:43;;;;;;;10.35;4.20;;;;;;;10.12;76.78;101536.38;5041314;28;20093;-77
2022/06/21 03:44:28;;;;;;;8.65;4.15;;;;;;;10.23;76.54;101552.84;5035351;28;20053;-78
2022/06/21 03:47:02;;;;;;;9.48;4.20;;;;;;;10.54;75.97;101554.97;5034987;28;20050;-77
2022/06/21 03:49:57;;;;;;;9.90;4.13;;;;;;;10.64;75.57;101560.94;5032620;28;20100;-78
2022/06/21 03:52:47;;;;;;;8.90;4.25;;;;;;;10.62;75.40;101568.03;5042691;28;20049;-77
2022/06/21 03:55:44;;;;;;;6.78;4.22;;;;;;;10.72;75.07;101572.22;5032725;28;20049;-76
2022/06/21 03:58:38;;;;;;;9.18;4.55;;;;;;;10.84;74.78;101576.38;5048083;28;20388;-77
2022/06/21 04:01:39;;;;;;;8.23;4.40;;;;;;;10.80;74.95;101566.78;5046923;28;20053;-77
2022/06/21 04:04:29;;;;;;;10.48;4.47;;;;;;;10.79;74.92;101573.84;5036187;28;20037;-76
2022/06/21 04:07:03;;;;;;;7.90;4.47;;;;;;;10.82;75.02;101571.16;5049980;28;20045;-76
2022/06/21 04:09:51;;;;;;;8.32;4.47;;;;;;;10.90;75.21;101552.50;5052336;28;20112;-76
2022/06/21 04:12:26;;;;;;;8.75;4.25;;;;;;;10.94;75.23;101548.91;5045216;28;20048;-78
2022/06/21 04:15:13;;;;;;;7.95;4.30;;;;;;;10.90;75.41;101530.53;5037646;28;20542;-77
2022/06/21 04:17:51;;;;;;;11.07;4.20;;;;;;;10.80;76.33;101516.66;5033331;28;20050;-75
2022/06/21 04:20:33;;;;;;;6.35;4.63;;;;;;;10.74;76.86;101517.66;5033454;28;20041;-76
2022/06/21 04:23:43;;;;;;;8.82;4.72;;;;;;;10.87;77.02;101524.44;5049201;28;20049;-76
2022/06/21 04:26:36;;;;;;;11.93;4.97;;;;;;;10.92;77.00;101534.03;5045643;28;20081;-74
2022/06/21 04:29:28;;;;;;;8.88;4.35;;;;;;;10.96;77.06;101522.50;5031855;28;20042;-75
2022/06/21 04:32:10;;;;;;;8.80;4.15;;;;;;;10.99;77.04;101518.00;5037272;28;20111;-74
2022/06/21 04:34:52;;;;;;;8.70;4.70;;;;;;;10.96;77.13;101522.50;5045707;28;20124;-73
2022/06/21 04:37:29;;;;;;;13.25;4.93;;;;;;;11.00;77.53;101527.66;5041375;28;20579;-75
2022/06/21 04:40:12;;;;;;;8.18;4.65;;;;;;;11.09;77.49;101518.69;5031704;28;20459;-75
2022/06/21 04:43:12;;;;;;;9.25;4.80;;;;;;;11.18;77.28;101518.50;5033910;28;20173;-76
2022/06/21 04:45:50;;;;;;;9.20;5.40;;;;;;;11.30;77.14;101519.13;5043135;28;20077;-77
2022/06/21 04:48:34;;;;;;;12.35;5.00;;;;;;;11.43;77.06;101519.72;5043837;28;20096;-76
2022/06/21 04:51:22;;;;;;;8.93;4.90;;;;;;;11.55;76.99;101516.78;5047380;28;20045;-73
2022/06/21 04:54:05;;;;;;;12.57;5.05;;;;;;;11.64;76.79;101513.94;5037801;28;20085;-76
2022/06/21 04:56:51;;;;;;;12.48;5.05;;;;;;;11.73;76.65;101506.69;5018901;28;20041;-74
2022/06/21 04:59:47;;;;;;;10.18;4.82;;;;;;;11.85;76.68;101516.09;5050965;28;20092;-75
2022/06/21 05:02:31;;;;;;;11.30;4.10;;;;;;;12.02;76.70;101506.00;5030546;28;20049;-74
2022/06/21 05:05:21;;;;;;;9.40;4.60;;;;;;;12.27;76.20;101513.25;5033304;28;20061;-74
2022/06/21 05:08:11;;;;;;;12.85;4.78;;;;;;;12.46;75.30;101511.00;5031433;28;20046;-75
2022/06/21 05:10:44;;;;;;;13.32;4.35;;;;;;;12.83;74.72;101506.44;5031117;28;20069;-74
2022/06/21 05:13:29;;;;;;;16.85;5.55;;;;;;;13.70;72.63;101512.63;5031599;28;20112;-74
2022/06/21 05:15:59;;;;;;;;;;;;;;;14.21;70.46;101508.25;5031718;28;20070;-74
2022/06/21 05:18:41;;;;;;;8.55;4.13;;;;;;;15.68;67.35;101496.56;5033353;28;19928;-75
2022/06/21 05:21:22;;;;;;;11.93;4.18;;;;;;;17.69;59.65;101495.50;5034474;28;20914;-74
2022/06/21 05:23:49;;;;;;;10.18;3.55;;;;;;;19.05;56.06;101484.03;5044366;28;20499;-75
2022/06/21 05:26:30;;;;;;;8.05;3.15;;;;;;;21.19;49.88;101481.97;5043626;28;20050;-74
2022/06/21 05:29:11;;;;;;;6.88;2.58;;;;;;;23.06;45.51;101487.09;5042391;28;20443;-74
2022/06/21 05:31:45;;;;;;;9.15;3.08;;;;;;;24.47;42.24;101480.06;5050625;28;20104;-76
2022/06/21 05:34:18;;;;;;;7.45;2.67;;;;;;;25.65;38.51;101480.47;5048331;28;20045;-74
2022/06/21 05:37:07;;;;;;;5.50;2.55;;;;;;;26.42;37.25;101475.72;5046357;28;20097;-74
2022/06/21 05:39:42;;;;;;;7.22;2.50;;;;;;;27.22;35.13;101476.69;5056714;28;20053;-75
2022/06/21 05:42:16;;;;;;;9.77;2.33;;;;;;;27.71;34.39;101481.31;5051206;28;20042;-74
2022/06/21 05:45:02;;;;;;;8.18;2.70;;;;;;;28.15;32.57;101481.69;5047645;28;20077;-75
2022/06/21 05:47:59;;;;;;;6.75;3.25;;;;;;;28.73;32.49;101485.22;5049489;28;20041;-73
2022/06/21 05:50:34;;;;;;;7.97;3.75;;;;;;;29.30;31.39;101478.72;5050301;28;20046;-75
2022/06/21 05:53:28;;;;;;;6.80;3.80;;;;;;;29.63;30.17;101475.47;5049569;28;20073;-77
2022/06/21 05:56:04;;;;;;;8.68;4.00;;;;;;;29.23;30.19;101472.19;5052040;28;20129;-75
2022/06/21 05:58:41;;;;;;;6.60;3.83;;;;;;;29.04;30.51;101481.31;5053222;28;20129;-75
2022/06/21 06:01:27;;;;;;;7.88;4.38;;;;;;;28.89;30.38;101486.41;5044747;28;20042;-75
2022/06/21 06:04:29;;;;;;;9.32;4.93;;;;;;;28.44;31.06;101488.03;5050970;28;20065;-75
2022/06/21 06:06:59;;;;;;;8.68;3.90;;;;;;;28.21;31.60;101493.78;5045003;28;20112;-76
2022/06/21 06:09:37;;;;;;;7.97;4.30;;;;;;;28.41;31.25;101491.03;5034632;28;20112;-75
2022/06/21 06:12:19;;;;;;;12.73;5.10;;;;;;;28.51;31.55;101491.84;5034330;28;20052;-74
2022/06/21 06:15:01;;;;;;;22.77;5.28;;;;;;;29.18;31.08;101504.38;5052489;28;20057;-74
2022/06/21 06:17:47;;;;;;;7.55;3.10;;;;;;;29.50;29.75;101494.88;5033848;28;20060;-75
2022/06/21 06:20:38;;;;;;;10.85;2.60;;;;;;;29.14;30.12;101498.41;5034250;28;20041;-76
2022/06/21 06:23:29;;;;;;;8.60;2.55;;;;;;;27.82;31.92;101516.38;5050814;28;20112;-76
2022/06/21 06:26:07;;;;;;;7.00;2.08;;;;;;;25.11;36.06;101519.00;5036210;28;20565;-75
2022/06/21 06:29:02;;;;;;;10.48;2.13;;;;;;;23.08;39.38;101530.88;5034648;28;20504;-75
2022/06/21 06:31:46;;;;;;;7.65;1.95;;;;;;;21.48;43.16;101536.38;5034652;28;20516;-75
2022/06/21 06:34:19;;;;;;;;;;;;;;;20.48;45.83;101546.19;5045993;28;20125;-76
2022/06/21 06:36:57;;;;;;;6.47;1.70;;;;;;;19.77;47.84;101556.59;5053531;28;19932;-73
2022/06/21 06:39:29;;;;;;;7.15;1.75;;;;;;;19.26;48.95;101562.13;5045698;28;20052;-75
2022/06/21 06:42:12;;;;;;;8.55;1.70;;;;;;;18.86;49.97;101556.28;5035070;28;20512;-75
2022/06/21 06:44:50;;;;;;;5.60;1.58;;;;;;;18.58;51.40;101560.44;5049041;28;20048;-76
2022/06/21 06:47:25;;;;;;;5.57;1.77;;;;;;;18.38;51.88;101561.44;5053591;28;20080;-75
2022/06/21 06:50:06;;;;;;;5.45;2.10;;;;;;;18.17;52.66;101561.63;5051494;28;20496;-74
2022/06/21 06:52:43;;;;;;;6.30;2.10;;;;;;;18.04;53.05;101564.03;5053599;28;20077;-74
2022/06/21 06:55:39;;;;;;;10.15;2.05;;;;;;;18.01;53.37;101569.53;5048414;28;20041;-75
2022/06/21 06:58:43;;;;;;;9.30;2.35;;;;;;;18.02;53.76;101573.06;5033649;28;20042;-76
2022/06/21 07:01:21;;;;;;;5.53;1.90;;;;;;;18.05;53.73;101563.09;5040600;28;20045;-74
2022/06/21 07:04:03;;;;;;;5.75;1.25;;;;;;;18.08;53.38;101554.97;5039735;28;20049;-75
2022/06/21 07:06:45;;;;;;;4.30;1.20;;;;;;;18.10;52.82;101555.75;5034261;28;20844;-75
2022/06/21 07:09:26;;;;;;;3.85;1.38;;;;;;;18.11;52.24;101561.94;5033903;28;20041;-75
2022/06/21 07:12:11;;;;;;;5.43;1.27;;;;;;;18.04;53.23;101556.03;5032038;28;20053;-75
2022/06/21 07:14:40;;;;;;;3.58;1.15;;;;;;;18.10;52.60;101561.09;5016052;28;20045;-74
2022/06/21 07:17:25;;;;;;;5.13;1.23;;;;;;;18.15;52.71;101563.53;5033592;28;20125;-73
2022/06/21 07:19:54;;;;;;;5.60;1.38;;;;;;;18.16;51.97;101560.75;5034280;28;20034;-75
2022/06/21 07:22:28;;;;;;;8.32;1.38;;;;;;;18.12;52.00;101553.84;5033709;28;20121;-73
2022/06/21 07:25:05;;;;;;;;;;;;;;;18.07;51.87;101555.00;5035188;28;20591;-73
2022/06/21 07:27:36;;;;;;;14.48;2.10;;;;;;;18.09;52.43;101566.47;5043537;28;19960;-72
2022/06/21 07:30:11;;;;;;;4.40;1.10;;;;;;;18.21;52.26;101570.34;5053099;28;20045;-75
2022/06/21 07:33:01;;;;;;;5.70;1.13;;;;;;;18.17;50.73;101556.28;5053147;28;20133;-74
2022/06/21 07:35:39;;;;;;;6.03;1.20;;;;;;;18.07;51.20;101565.69;5043333;28;20137;-73
2022/06/21 07:38:32;;;;;;;3.70;1.10;;;;;;;18.12;52.36;101563.66;5037489;28;20530;-73
2022/06/21 07:41:12;;;;;;;12.07;1.75;;;;;;;18.23;52.28;101558.66;5036130;28;20125;-73
2022/06/21 07:43:50;;;;;;;3.00;1.02;;;;;;;18.33;51.88;101551.00;5040648;28;20540;-73
2022/06/21 07:46:45;;;;;;;4.90;1.23;;;;;;;18.30;51.73;101549.38;5032845;28;20145;-74
2022/06/21 07:49:27;;;;;;;4.70;1.23;;;;;;;18.27;52.01;101543.34;5033551;28;20042;-74
2022/06/21 07:52:04;;;;;;;5.78;1.23;;;;;;;18.31;52.18;101543.09;5032722;28;20066;-74
2022/06/21 07:54:44;;;;;;;3.97;1.10;;;;;;;18.35;51.83;101537.63;5036666;28;20041;-75
2022/06/21 07:57:21;;;;;;;19.10;1.90;;;;;;;18.38;51.94;101542.78;5050561;28;20045;-76
2022/06/21 08:00:10;;;;;;;5.90;1.30;;;;;;;18.46;51.83;101535.25;5046361;28;20132;-75
2022/06/21 08:08:57;;;;;;;8.02;1.40;;;;;;;19.05;50.70;101545.50;5032289;28;20038;-75
2022/06/21 08:11:36;;;;;;;11.45;1.75;;;;;;;19.13;50.50;101548.59;5048786;28;20034;-76
2022/06/21 08:14:04;;;;;;;3.53;1.50;;;;;;;19.18;50.35;101533.16;5051930;28;20052;-76
2022/06/21 08:16:43;;;;;;;7.20;1.42;;;;;;;19.11;50.33;101526.44;5049954;28;20058;-76
2022/06/21 08:19:18;;;;;;;8.23;1.60;;;;;;;18.97;50.30;101523.69;5050281;28;20041;-76
2022/06/21 08:21:51;;;;;;;10.15;2.08;;;;;;;18.85;51.03;101519.81;5052186;28;20052;-76
2022/06/21 08:24:37;;;;;;;7.40;1.30;;;;;;;18.83;50.21;101522.59;5051150;28;20117;-76
2022/06/21 08:27:24;;;;;;;6.47;1.60;;;;;;;18.80;50.33;101514.72;5031941;28;20048;-76
2022/06/21 08:30:17;;;;;;;6.38;1.42;;;;;;;18.85;50.26;101507.34;5032094;28;20129;-76
2022/06/21 08:32:59;;;;;;;11.20;2.00;;;;;;;18.99;50.38;101511.06;5040328;28;20042;-75
2022/06/21 08:35:47;;;;;;;5.63;1.42;;;;;;;19.18;49.56;101510.91;5046290;28;20045;-75
2022/06/21 08:38:28;;;;;;;4.47;1.42;;;;;;;19.33;49.22;101501.19;5032768;28;20041;-76
2022/06/21 08:41:55;;;;;;;6.60;1.40;;;;;;;19.57;48.13;101501.56;5031623;28;20108;-75
2022/06/21 08:48:17;;;;;;;6.20;1.13;;;;;;;19.42;47.30;101483.75;5031700;28;22114;-77
2022/06/21 08:51:30;;;;;;;6.30;1.17;;;;;;;19.27;48.81;101488.19;4999682;28;20053;-76
2022/06/21 08:54:26;;;;;;;6.03;1.20;;;;;;;19.23;49.12;101498.16;5018168;28;20084;-76
2022/06/21 08:57:05;;;;;;;4.68;1.15;;;;;;;19.37;49.02;101505.41;5031788;28;20776;-75
2022/06/21 09:00:17;;;;;;;8.45;1.58;;;;;;;19.62;48.72;101498.63;5018466;28;20126;-75
2022/06/21 09:03:17;;;;;;;4.60;1.30;;;;;;;19.77;48.13;101495.06;5008741;28;20534;-74
2022/06/21 09:06:02;;;;;;;3.55;1.00;;;;;;;19.92;46.28;101474.59;5020580;28;20046;-74
2022/06/21 09:08:54;;;;;;;5.78;1.08;;;;;;;19.98;45.88;101468.03;5012179;28;20058;-75
2022/06/21 09:11:33;;;;;;;7.63;1.40;;;;;;;19.96;46.04;101464.56;5015555;28;20043;-75
2022/06/21 09:14:22;;;;;;;6.07;1.20;;;;;;;20.12;46.25;101469.88;5027458;28;20532;-76
2022/06/21 09:17:26;;;;;;;9.40;1.33;;;;;;;20.25;46.50;101469.97;5016588;28;20166;-75
2022/06/21 09:20:51;;;;;;;9.02;1.35;;;;;;;20.31;46.19;101456.19;5026517;28;20587;-75
2022/06/21 09:23:58;;;;;;;4.03;1.10;;;;;;;20.27;46.03;101434.13;5015807;28;20129;-76
2022/06/21 09:26:53;;;;;;;2.13;0.80;;;;;;;20.30;45.44;101433.06;5018315;28;20034;-76
2022/06/21 09:29:26;;;;;;;3.35;0.98;;;;;;;20.44;44.82;101432.22;5015567;28;20064;-74
2022/06/21 09:32:13;;;;;;;3.83;1.00;;;;;;;20.56;44.63;101431.41;5015527;28;20053;-75
2022/06/21 09:35:12;;;;;;;3.70;1.10;;;;;;;20.63;43.70;101422.06;5026433;28;20105;-76
2022/06/21 09:38:18;;;;;;;4.40;0.73;;;;;;;20.74;42.77;101415.19;5034620;28;20092;-76
2022/06/21 09:41:23;;;;;;;4.13;1.20;;;;;;;20.78;42.66;101425.59;5027666;28;20042;-75
2022/06/21 09:44:21;;;;;;;5.45;1.13;;;;;;;20.79;43.42;101430.00;5019963;28;20153;-76
2022/06/21 09:47:15;;;;;;;4.57;0.90;;;;;;;20.94;43.41;101428.16;5014886;28;20049;-77
2022/06/21 09:50:31;;;;;;;3.80;0.95;;;;;;;20.92;43.21;101422.03;5026134;28;20212;-74
2022/06/21 09:53:44;;;;;;;3.95;1.15;;;;;;;21.00;43.93;101405.47;5014912;28;20126;-74
2022/06/21 09:56:45;;;;;;;4.97;1.23;;;;;;;21.23;43.61;101403.06;5028402;28;20066;-75
2022/06/21 09:59:33;;;;;;;6.05;1.15;;;;;;;21.26;42.04;101394.81;5031106;28;20046;-73
2022/06/21 10:03:09;;;;;;;4.28;0.95;;;;;;;21.22;41.91;101390.59;5034546;28;20046;-73
2022/06/21 10:05:51;;;;;;;3.35;0.88;;;;;;;21.09;42.39;101386.09;5024393;28;20042;-74
2022/06/21 10:08:46;;;;;;;5.35;0.90;;;;;;;20.99;42.91;101382.28;5030404;28;20070;-75
2022/06/21 10:11:57;;;;;;;6.15;1.00;;;;;;;21.06;43.91;101383.59;5014153;28;20097;-75
2022/06/21 10:14:57;;;;;;;3.92;0.90;;;;;;;21.39;42.11;101390.34;5029593;28;20515;-74
2022/06/21 10:17:41;;;;;;;2.63;0.70;;;;;;;21.34;42.22;101384.44;5015397;28;20137;-77
2022/06/21 10:20:48;;;;;;;7.40;0.98;;;;;;;21.08;43.72;101396.88;5017222;28;20038;-74
2022/06/21 10:23:49;;;;;;;5.78;1.10;;;;;;;21.07;43.42;101390.69;5014619;28;20046;-74
2022/06/21 10:26:40;;;;;;;5.40;0.88;;;;;;;21.12;43.11;101395.72;5013572;28;20129;-75
2022/06/21 10:29:29;;;;;;;10.15;1.20;;;;;;;21.20;43.42;101389.88;5013515;28;20600;-75
2022/06/21 10:32:20;;;;;;;4.57;1.20;;;;;;;21.49;42.40;101403.13;5014010;28;20043;-75
2022/06/21 10:35:28;;;;;;;4.38;0.77;;;;;;;22.03;40.57;101404.84;5014108;28;20060;-75
2022/06/21 10:38:32;;;;;;;4.10;0.70;;;;;;;22.13;38.02;101399.69;5030473;28;20108;-76
2022/06/21 10:44:57;;;;;;;3.67;0.70;;;;;;;22.24;39.42;101389.00;5016330;28;20048;-76
2022/06/21 10:47:53;;;;;;;2.65;0.70;;;;;;;22.27;38.76;101396.03;5014081;28;20038;-77
2022/06/21 10:50:32;;;;;;;2.00;0.50;;;;;;;22.24;40.04;101404.28;5027911;28;20146;-76
2022/06/21 10:53:56;;;;;;;1.83;0.40;;;;;;;22.29;39.80;101397.63;5017813;28;20038;-78
2022/06/21 10:57:14;;;;;;;4.38;0.70;;;;;;;22.42;38.11;101388.72;5004777;28;20066;-77
2022/06/21 11:03:37;;;;;;;2.75;0.80;;;;;;;22.28;38.90;101390.53;5014559;28;20042;-76
2022/06/21 11:06:27;;;;;;;2.47;0.70;;;;;;;22.19;39.65;101389.34;5017063;28;20038;-76
2022/06/21 11:09:28;;;;;;;2.22;0.63;;;;;;;22.15;39.55;101390.56;5012968;28;20050;-75
2022/06/21 11:15:29;;;;;;;;;;;;;;;22.00;39.98;101387.13;5013561;28;20065;-76
2022/06/21 11:18:48;;;;;;;8.68;0.80;;;;;;;22.05;39.31;101383.25;5013148;28;20024;-76
2022/06/21 11:21:59;;;;;;;3.95;0.82;;;;;;;22.13;40.75;101389.78;5015407;28;20042;-78
2022/06/21 11:25:04;;;;;;;3.05;0.80;;;;;;;22.32;39.32;101385.78;5014810;28;20066;-76
2022/06/21 11:28:01;;;;;;;5.05;0.80;;;;;;;22.25;39.61;101377.31;5013123;28;20042;-75
2022/06/21 11:31:06;;;;;;;3.08;0.80;;;;;;;22.14;40.55;101383.47;5013384;28;20113;-75
2022/06/21 11:34:16;;;;;;;2.22;0.77;;;;;;;22.10;40.43;101384.63;5012673;28;20852;-76
2022/06/21 11:37:24;;;;;;;3.47;0.93;;;;;;;22.09;40.83;101382.91;5011462;28;20090;-76
2022/06/21 11:40:40;;;;;;;4.57;0.77;;;;;;;22.13;39.46;101378.22;5015008;28;20030;-76
2022/06/21 11:43:39;;;;;;;4.70;0.75;;;;;;;22.12;40.25;101382.69;5017488;28;20045;-75
2022/06/21 11:46:25;;;;;;;3.90;0.82;;;;;;;22.48;41.25;101394.50;5022370;28;20101;-75
2022/06/21 11:49:26;;;;;;;9.82;1.33;;;;;;;23.01;40.81;101390.66;5031340;28;20041;-75
2022/06/21 11:52:21;;;;;;;5.47;0.95;;;;;;;23.39;39.73;101397.72;5030638;28;20049;-76
2022/06/21 11:55:27;;;;;;;3.38;0.77;;;;;;;23.70;38.27;101381.03;5032858;28;20065;-75
2022/06/21 11:58:34;;;;;;;4.82;0.98;;;;;;;23.73;36.93;101380.81;5032601;28;20133;-75
2022/06/21 12:01:26;;;;;;;4.57;0.90;;;;;;;23.68;36.49;101385.69;5013407;28;20558;-76
2022/06/21 12:04:32;;;;;;;4.60;0.88;;;;;;;23.44;35.96;101391.13;5018214;28;20459;-77
2022/06/21 12:07:16;;;;;;;3.78;0.70;;;;;;;23.16;36.94;101385.13;5012902;28;20121;-76
2022/06/21 12:10:02;;;;;;;1.88;0.75;;;;;;;23.07;37.79;101383.97;5020272;28;20038;-74
2022/06/21 12:12:50;;;;;;;4.00;0.80;;;;;;;23.02;37.26;101383.47;5026803;28;20142;-74
2022/06/21 12:15:48;;;;;;;8.13;1.08;;;;;;;22.98;38.05;101380.16;5032080;28;20038;-75
2022/06/21 12:18:25;;;;;;;2.55;0.60;;;;;;;22.92;37.83;101369.84;5033334;28;20076;-75
2022/06/21 12:21:06;;;;;;;2.88;0.70;;;;;;;22.95;38.37;101366.94;5030876;28;20133;-73
2022/06/21 12:24:14;;;;;;;7.22;1.13;;;;;;;23.01;38.30;101361.09;5013747;28;20043;-75
2022/06/21 12:26:43;;;;;;;2.70;0.80;;;;;;;23.13;37.86;101366.53;5020984;28;20061;-76
2022/06/21 12:29:19;;;;;;;3.83;0.70;;;;;;;23.16;37.19;101366.28;5022872;28;20088;-74
2022/06/21 12:31:51;;;;;;;4.43;0.98;;;;;;;23.01;36.63;101357.56;5019223;28;20073;-75
2022/06/21 12:35:01;;;;;;;2.08;0.60;;;;;;;22.91;37.04;101355.56;5031862;28;20121;-72
2022/06/21 12:37:42;;;;;;;4.22;0.70;;;;;;;22.76;35.88;101354.00;5020838;28;20078;-74
2022/06/21 12:40:34;;;;;;;2.97;0.60;;;;;;;22.53;36.66;101351.19;5026037;28;20058;-74
2022/06/21 12:43:29;;;;;;;8.57;0.77;;;;;;;22.52;37.32;101357.53;5020726;28;20070;-73
2022/06/21 12:46:15;;;;;;;1.80;0.60;;;;;;;22.64;37.12;101359.31;5023213;28;20104;-75
2022/06/21 12:49:20;;;;;;;4.03;0.65;;;;;;;22.71;37.34;101348.13;5026063;28;20050;-73
2022/06/21 12:51:56;;;;;;;2.30;0.70;;;;;;;22.68;36.63;101343.84;5026930;28;20034;-76
2022/06/21 12:55:10;;;;;;;4.15;0.77;;;;;;;22.57;37.10;101338.41;5022328;28;20045;-73
2022/06/21 12:58:11;;;;;;;3.03;1.00;;;;;;;22.55;37.46;101346.53;5023573;28;20057;-74
2022/06/21 13:00:47;;;;;;;3.47;0.77;;;;;;;22.53;37.40;101337.75;5027480;28;20504;-73
2022/06/21 13:03:59;;;;;;;4.80;1.25;;;;;;;22.58;37.76;101343.66;5021233;28;21010;-73
2022/06/21 13:06:47;;;;;;;4.97;1.00;;;;;;;22.76;37.54;101336.06;5024392;28;20501;-74
2022/06/21 13:09:49;;;;;;;6.47;1.58;;;;;;;22.95;37.08;101327.47;5026047;28;20111;-72